Time;durP1;ratioP1;P1;durP2;ratioP2;P2;SDS_P1;SDS_P2;PMS_P1;PMS_P2;Temp;Humidity;BMP_temperature;BMP_pressure;BME280_temperature;BME280_humidity;BME280_pressure;Samples;Min_cycle;Max_cycle;Signal;HPM_P1;HPM_P2
2021/12/03 00:00:27;;;;;;;8.35;6.25;;;;;;;9.00;65.92;97499.94;1690548;83;21010;-62
2021/12/03 00:02:53;;;;;;;8.65;7.42;;;;;;;9.03;65.81;97508.80;1698019;83;21141;-61
2021/12/03 00:05:20;;;;;;;9.45;7.40;;;;;;;8.98;65.94;97511.27;1698723;83;21552;-62
2021/12/03 00:07:47;;;;;;;7.50;6.03;;;;;;;8.96;65.77;97510.16;1691813;84;20991;-62
2021/12/03 00:10:16;;;;;;;7.33;6.58;;;;;;;8.99;65.70;97512.41;1700124;83;21065;-62
2021/12/03 00:12:42;;;;;;;8.20;7.08;;;;;;;8.99;65.58;97521.69;1707335;83;21054;-62
2021/12/03 00:15:10;;;;;;;7.17;6.37;;;;;;;9.02;65.47;97522.57;1692922;83;21734;-63
2021/12/03 00:17:38;;;;;;;6.72;5.75;;;;;;;8.99;65.18;97513.73;1689043;83;20892;-62
2021/12/03 00:20:07;;;;;;;6.85;5.70;;;;;;;8.96;65.10;97512.81;1698613;83;20959;-62
2021/12/03 00:22:33;;;;;;;7.37;6.60;;;;;;;9.01;64.95;97516.16;1693614;83;20927;-61
2021/12/03 00:25:00;;;;;;;7.87;6.78;;;;;;;9.01;64.80;97533.40;1687737;83;21022;-61
2021/12/03 00:27:26;;;;;;;7.70;6.37;;;;;;;8.99;64.63;97538.10;1693079;83;21199;-62
2021/12/03 00:29:53;;;;;;;7.92;6.22;;;;;;;8.92;64.71;97532.80;1697825;83;21061;-61
2021/12/03 00:32:19;;;;;;;7.78;6.70;;;;;;;8.92;64.67;97535.95;1695982;83;21059;-61
2021/12/03 00:34:45;;;;;;;7.70;6.90;;;;;;;8.91;64.64;97529.03;1690879;83;20895;-62
2021/12/03 00:37:12;;;;;;;7.90;6.62;;;;;;;8.86;64.73;97528.34;1693833;83;21557;-62
2021/12/03 00:39:38;;;;;;;8.45;7.12;;;;;;;8.86;64.77;97528.84;1700750;83;21156;-61
2021/12/03 00:42:05;;;;;;;7.70;6.53;;;;;;;8.81;64.88;97533.44;1695276;83;20947;-62
2021/12/03 00:44:33;;;;;;;7.97;7.10;;;;;;;8.81;64.89;97549.35;1690936;83;21014;-62
2021/12/03 00:46:59;;;;;;;9.65;7.85;;;;;;;8.76;65.20;97556.28;1692886;83;20895;-61
2021/12/03 00:49:26;;;;;;;10.10;8.40;;;;;;;8.81;65.38;97553.33;1698134;83;21007;-61
2021/12/03 00:51:52;;;;;;;9.45;8.45;;;;;;;8.82;65.53;97561.57;1691382;83;21161;-61
2021/12/03 00:54:19;;;;;;;9.83;8.60;;;;;;;8.82;65.69;97563.40;1681651;83;20860;-61
2021/12/03 00:56:45;;;;;;;9.45;8.45;;;;;;;8.80;65.99;97558.31;1702008;83;20943;-62
2021/12/03 00:59:13;;;;;;;9.30;8.28;;;;;;;8.78;66.41;97547.61;1698105;83;21199;-62
2021/12/03 01:01:40;;;;;;;15.32;11.65;;;;;;;8.78;66.44;97551.59;1688105;83;21002;-62
2021/12/03 01:04:07;;;;;;;13.78;10.80;;;;;;;8.73;66.54;97555.37;1703588;83;21155;-62
2021/12/03 01:06:33;;;;;;;11.20;10.00;;;;;;;8.75;66.33;97555.97;1689473;83;20935;-62
2021/12/03 01:08:59;;;;;;;11.53;10.32;;;;;;;8.67;66.44;97553.02;1699758;83;21513;-63
2021/12/03 01:11:26;;;;;;;13.88;12.13;;;;;;;8.67;66.56;97558.32;1696757;83;20991;-60
2021/12/03 01:13:57;;;;;;;13.93;12.53;;;;;;;8.75;66.42;97559.95;1696426;83;21592;-60
2021/12/03 01:16:20;;;;;;;12.43;11.18;;;;;;;8.78;66.28;97552.91;1696644;83;21504;-62
2021/12/03 01:18:46;;;;;;;9.23;8.33;;;;;;;8.77;66.13;97565.34;1700159;83;21005;-62
2021/12/03 01:21:14;;;;;;;8.33;7.37;;;;;;;8.78;65.76;97554.23;1694627;83;21037;-62
2021/12/03 01:23:40;;;;;;;6.75;6.15;;;;;;;8.69;65.34;97554.45;1694795;83;21156;-61
2021/12/03 01:26:07;;;;;;;6.70;6.00;;;;;;;8.67;65.11;97549.86;1698021;83;21046;-62
2021/12/03 01:28:33;;;;;;;5.45;4.87;;;;;;;8.65;64.99;97551.91;1705483;83;22318;-61
2021/12/03 01:31:00;;;;;;;8.40;5.60;;;;;;;8.68;64.60;97549.36;1690839;83;20868;-62
2021/12/03 01:33:26;;;;;;;7.42;6.00;;;;;;;8.60;63.74;97549.03;1694206;83;21621;-62
2021/12/03 01:35:52;;;;;;;6.40;5.80;;;;;;;8.38;63.72;97548.11;1697320;83;21543;-62
2021/12/03 01:38:18;;;;;;;7.58;5.97;;;;;;;8.22;63.92;97540.02;1684785;83;21038;-62
2021/12/03 01:40:45;;;;;;;8.20;6.37;;;;;;;8.15;63.51;97537.88;1698342;83;21904;-62
2021/12/03 01:43:15;;;;;;;6.25;5.65;;;;;;;7.99;63.51;97540.89;1693861;83;21061;-61
2021/12/03 01:45:40;;;;;;;5.72;4.78;;;;;;;7.91;63.87;97533.13;1693647;83;21418;-62
2021/12/03 01:48:06;;;;;;;4.90;3.80;;;;;;;7.84;63.48;97534.45;1693843;83;20995;-62
2021/12/03 01:50:38;;;;;;;5.12;4.05;;;;;;;7.67;63.66;97541.60;1692234;83;20950;-62
2021/12/03 01:53:06;;;;;;;8.93;7.35;;;;;;;7.59;63.76;97553.68;1692148;83;21508;-61
2021/12/03 01:55:33;;;;;;;9.58;8.68;;;;;;;7.48;63.86;97564.85;1695490;83;20943;-61
2021/12/03 01:57:59;;;;;;;8.85;7.95;;;;;;;7.41;64.02;97574.06;1708542;83;20860;-62
2021/12/03 02:00:31;;;;;;;6.78;5.55;;;;;;;7.35;63.88;97587.56;1692418;83;20959;-62
2021/12/03 02:02:57;;;;;;;8.88;6.58;;;;;;;7.20;64.01;97586.05;1688658;83;20926;-61
2021/12/03 02:05:24;;;;;;;10.05;7.58;;;;;;;6.98;64.26;97587.97;1703373;83;21142;-63
2021/12/03 02:07:50;;;;;;;9.58;7.62;;;;;;;6.86;64.70;97580.23;1699277;83;20947;-62
2021/12/03 02:10:19;;;;;;;8.68;6.12;;;;;;;6.86;65.02;97579.45;1702939;83;21066;-63
2021/12/03 02:12:46;;;;;;;7.08;5.20;;;;;;;6.80;65.77;97584.98;1707799;83;20931;-61
2021/12/03 02:15:13;;;;;;;4.80;4.30;;;;;;;6.63;66.21;97580.97;1689534;83;21002;-62
2021/12/03 02:17:39;;;;;;;5.70;4.00;;;;;;;6.55;66.79;97582.42;1704051;83;21867;-62
2021/12/03 02:20:09;;;;;;;5.47;4.12;;;;;;;6.39;67.19;97597.24;1696297;83;20946;-61
2021/12/03 02:22:37;;;;;;;5.45;4.30;;;;;;;6.34;67.61;97602.25;1690510;83;20990;-63
2021/12/03 02:25:05;;;;;;;6.75;6.03;;;;;;;6.35;67.62;97607.86;1696744;83;21047;-61
2021/12/03 02:27:32;;;;;;;10.65;9.53;;;;;;;6.39;67.70;97613.09;1707376;83;21046;-61
2021/12/03 02:29:58;;;;;;;14.07;12.58;;;;;;;6.36;67.76;97621.38;1692035;83;22370;-60
2021/12/03 02:32:25;;;;;;;14.73;13.32;;;;;;;6.38;67.90;97626.80;1686718;83;20990;-62
2021/12/03 02:34:51;;;;;;;17.98;16.10;;;;;;;6.46;67.79;97624.03;1703075;83;20923;-61
2021/12/03 02:37:18;;;;;;;15.25;13.72;;;;;;;6.39;67.63;97627.09;1689430;84;21569;-60
2021/12/03 02:39:44;;;;;;;11.15;10.15;;;;;;;6.34;68.00;97636.08;1683518;85;20995;-61
2021/12/03 02:42:10;;;;;;;9.28;8.28;;;;;;;6.34;68.21;97632.62;1685192;83;21158;-61
2021/12/03 02:44:36;;;;;;;7.80;7.00;;;;;;;6.39;68.13;97624.45;1685222;84;20995;-61
2021/12/03 02:47:04;;;;;;;8.40;7.60;;;;;;;6.48;68.00;97634.39;1687688;84;21505;-60
2021/12/03 02:49:30;;;;;;;8.03;7.22;;;;;;;6.43;67.76;97642.89;1686148;84;20927;-61
2021/12/03 02:51:56;;;;;;;8.50;7.25;;;;;;;6.43;67.78;97635.47;1661553;85;20998;-60
2021/12/03 02:54:23;;;;;;;5.95;5.35;;;;;;;6.29;67.50;97636.33;1685380;84;21481;-62
2021/12/03 02:56:49;;;;;;;5.55;4.33;;;;;;;6.12;68.29;97643.19;1684231;83;20968;-60
2021/12/03 02:59:16;;;;;;;5.78;4.20;;;;;;;6.07;68.55;97647.38;1686488;84;21555;-61
2021/12/03 03:01:44;;;;;;;3.20;2.90;;;;;;;6.10;68.62;97650.45;1685739;85;21037;-61
2021/12/03 03:04:12;;;;;;;3.47;2.65;;;;;;;6.04;68.52;97646.43;1690395;84;20943;-62
2021/12/03 03:06:39;;;;;;;3.65;2.58;;;;;;;6.06;68.73;97649.20;1686588;84;21940;-61
2021/12/03 03:09:11;;;;;;;4.72;3.15;;;;;;;6.12;68.63;97648.47;1687161;84;20986;-61
2021/12/03 03:11:36;;;;;;;3.50;2.12;;;;;;;6.10;68.65;97650.45;1685994;83;20975;-62
2021/12/03 03:14:04;;;;;;;5.10;2.37;;;;;;;6.11;68.58;97653.41;1688979;84;21007;-62
2021/12/03 03:16:31;;;;;;;2.47;2.20;;;;;;;6.02;68.62;97643.95;1685934;84;20951;-61
2021/12/03 03:18:58;;;;;;;2.72;2.20;;;;;;;5.94;68.88;97642.77;1687329;84;21162;-61
2021/12/03 03:21:25;;;;;;;3.08;2.20;;;;;;;5.95;68.98;97644.89;1686015;85;21738;-61
2021/12/03 03:23:51;;;;;;;2.98;2.77;;;;;;;6.00;68.96;97649.11;1683893;84;20959;-62
2021/12/03 03:26:18;;;;;;;4.28;3.05;;;;;;;5.99;69.02;97646.17;1683737;83;20970;-62
2021/12/03 03:28:45;;;;;;;3.08;2.77;;;;;;;5.94;69.08;97654.66;1688031;84;21054;-62
2021/12/03 03:31:13;;;;;;;3.35;2.95;;;;;;;5.95;69.18;97656.77;1686392;84;22110;-62
2021/12/03 03:33:39;;;;;;;3.55;3.20;;;;;;;5.95;69.04;97656.77;1684979;85;20857;-61
2021/12/03 03:36:05;;;;;;;4.78;3.33;;;;;;;5.92;69.16;97659.77;1682460;85;21093;-61
2021/12/03 03:38:32;;;;;;;3.47;3.05;;;;;;;5.89;69.25;97662.28;1688134;83;21568;-62
2021/12/03 03:40:59;;;;;;;4.05;3.35;;;;;;;5.88;69.20;97667.26;1692454;83;20955;-62
2021/12/03 03:43:25;;;;;;;4.20;3.80;;;;;;;5.88;69.37;97663.30;1692179;83;21156;-62
2021/12/03 03:45:52;;;;;;;4.40;3.80;;;;;;;5.95;69.44;97660.23;1689499;83;20923;-62
2021/12/03 03:48:19;;;;;;;4.62;4.20;;;;;;;5.97;69.26;97670.09;1688503;83;20954;-62
2021/12/03 03:50:45;;;;;;;6.08;4.05;;;;;;;5.95;69.32;97669.96;1685962;83;21816;-62
2021/12/03 03:53:12;;;;;;;4.35;3.42;;;;;;;5.92;69.17;97668.52;1701286;83;21451;-62
2021/12/03 03:55:38;;;;;;;3.60;2.85;;;;;;;5.88;69.44;97660.66;1698177;83;21167;-62
2021/12/03 03:58:05;;;;;;;3.95;3.10;;;;;;;5.88;69.45;97656.70;1694053;83;21563;-61
2021/12/03 04:00:36;;;;;;;4.10;2.70;;;;;;;5.85;69.58;97649.14;1689830;83;20983;-61
2021/12/03 04:03:03;;;;;;;3.00;2.70;;;;;;;5.85;69.62;97654.42;1690982;83;20990;-61
2021/12/03 04:05:29;;;;;;;3.35;3.05;;;;;;;5.68;69.68;97666.16;1704925;83;21007;-61
2021/12/03 04:07:56;;;;;;;3.25;2.90;;;;;;;5.55;70.47;97662.03;1699805;83;21165;-63
2021/12/03 04:10:22;;;;;;;3.83;3.45;;;;;;;5.58;70.74;97665.59;1687676;83;20986;-60
2021/12/03 04:12:48;;;;;;;5.25;3.25;;;;;;;5.61;70.80;97673.15;1688898;83;21438;-61
2021/12/03 04:15:15;;;;;;;5.45;4.25;;;;;;;5.63;70.81;97675.13;1696702;83;21580;-61
2021/12/03 04:17:42;;;;;;;5.72;4.78;;;;;;;5.61;70.83;97692.94;1707386;83;20980;-61
2021/12/03 04:20:10;;;;;;;8.73;4.95;;;;;;;5.60;70.90;97692.11;1693600;83;21160;-61
2021/12/03 04:22:37;;;;;;;7.12;5.80;;;;;;;5.61;71.11;97690.30;1694752;83;21551;-62
2021/12/03 04:25:05;;;;;;;7.00;5.83;;;;;;;5.60;71.07;97696.59;1690878;83;21026;-61
2021/12/03 04:27:31;;;;;;;7.37;6.62;;;;;;;5.64;71.12;97701.81;1689987;83;20931;-62
2021/12/03 04:29:58;;;;;;;7.22;6.08;;;;;;;5.62;71.20;97699.86;1698104;83;21085;-61
2021/12/03 04:32:25;;;;;;;6.87;6.15;;;;;;;5.53;71.03;97700.44;1696223;83;21166;-60
2021/12/03 04:34:53;;;;;;;6.58;5.45;;;;;;;5.51;71.31;97698.48;1693394;83;20903;-62
2021/12/03 04:37:19;;;;;;;6.60;5.42;;;;;;;5.47;71.44;97711.73;1689205;83;21051;-61
2021/12/03 04:39:46;;;;;;;7.83;5.12;;;;;;;5.46;71.69;97703.98;1685230;83;20938;-62
2021/12/03 04:42:12;;;;;;;5.40;4.90;;;;;;;5.54;71.51;97699.95;1697287;83;21644;-60
2021/12/03 04:44:39;;;;;;;6.17;4.42;;;;;;;5.57;71.41;97695.63;1690175;83;21112;-62
2021/12/03 04:47:05;;;;;;;5.20;3.70;;;;;;;5.62;71.32;97689.30;1693414;83;21461;-62
2021/12/03 04:49:32;;;;;;;5.03;4.30;;;;;;;5.66;71.14;97700.33;1695619;83;21066;-62
2021/12/03 04:51:58;;;;;;;4.47;3.58;;;;;;;5.65;70.95;97702.14;1696753;83;21066;-62
2021/12/03 04:54:26;;;;;;;4.10;3.70;;;;;;;5.61;70.96;97712.72;1694482;83;21069;-61
2021/12/03 04:56:54;;;;;;;5.80;4.05;;;;;;;5.59;71.10;97714.73;1691207;83;21132;-62
2021/12/03 04:59:21;;;;;;;4.50;3.65;;;;;;;5.58;71.05;97715.22;1679387;84;20990;-61
2021/12/03 05:01:48;;;;;;;4.05;3.33;;;;;;;5.55;71.06;97717.42;1692778;83;20907;-62
2021/12/03 05:04:15;;;;;;;4.30;3.40;;;;;;;5.56;71.20;97717.72;1700725;83;20935;-61
2021/12/03 05:09:23;;;;;;;4.20;3.10;;;;;;;5.47;71.34;97718.33;1666877;84;21114;-61
2021/12/03 05:11:49;;;;;;;3.30;2.50;;;;;;;5.35;71.25;97714.47;1690806;83;20968;-62
2021/12/03 05:14:15;;;;;;;3.02;2.72;;;;;;;5.37;71.39;97720.38;1700499;83;21485;-62
2021/12/03 05:16:45;;;;;;;4.92;2.72;;;;;;;5.35;71.43;97724.20;1697038;83;21029;-61
2021/12/03 05:19:10;;;;;;;3.37;2.70;;;;;;;5.33;72.05;97737.57;1699593;83;20962;-62
2021/12/03 05:21:36;;;;;;;2.80;2.45;;;;;;;5.33;72.75;97744.16;1692814;83;21767;-62
2021/12/03 05:24:04;;;;;;;2.98;2.70;;;;;;;5.35;73.18;97736.06;1701818;83;21029;-62
2021/12/03 05:26:30;;;;;;;3.20;2.98;;;;;;;5.39;73.57;97733.41;1695191;83;20960;-61
2021/12/03 05:28:57;;;;;;;3.92;3.27;;;;;;;5.44;73.72;97725.77;1697399;83;22023;-62
2021/12/03 05:31:23;;;;;;;3.75;3.30;;;;;;;5.50;73.67;97733.77;1689379;83;20962;-62
2021/12/03 05:33:49;;;;;;;4.20;3.05;;;;;;;5.44;73.44;97731.05;1695400;83;21112;-65
2021/12/03 05:36:15;;;;;;;5.28;3.33;;;;;;;5.37;73.47;97733.56;1688885;83;21544;-65
2021/12/03 05:38:42;;;;;;;5.15;3.08;;;;;;;5.39;73.20;97737.36;1693476;83;20979;-66
2021/12/03 05:41:08;;;;;;;4.37;2.95;;;;;;;5.32;72.76;97733.28;1687257;83;21030;-66
2021/12/03 05:43:34;;;;;;;3.35;2.95;;;;;;;5.29;72.74;97736.80;1690541;83;21477;-65
2021/12/03 05:46:01;;;;;;;3.85;2.90;;;;;;;5.27;72.62;97746.19;1694056;83;21154;-62
2021/12/03 05:48:27;;;;;;;4.53;3.37;;;;;;;5.26;73.14;97752.97;1694476;83;20987;-65
2021/12/03 05:50:54;;;;;;;3.92;3.37;;;;;;;5.18;73.89;97764.91;1691944;83;20985;-65
2021/12/03 05:53:20;;;;;;;4.25;3.50;;;;;;;5.24;74.45;97780.02;1699987;83;22011;-61
2021/12/03 05:55:46;;;;;;;5.28;4.08;;;;;;;5.32;74.51;97783.91;1690362;83;20998;-67
2021/12/03 05:58:15;;;;;;;6.70;4.50;;;;;;;5.33;74.56;97796.08;1687138;83;21147;-64
2021/12/03 06:00:42;;;;;;;7.72;5.17;;;;;;;5.29;74.89;97794.28;1692872;83;20952;-71
2021/12/03 06:03:08;;;;;;;20.68;9.85;;;;;;;5.25;75.38;97808.00;1704247;83;20987;-65
2021/12/03 06:05:39;;;;;;;13.15;6.72;;;;;;;5.17;75.75;97818.61;1695716;83;21002;-64
2021/12/03 06:08:05;;;;;;;12.10;6.62;;;;;;;5.17;76.28;97818.61;1694857;83;21481;-68
2021/12/03 06:10:32;;;;;;;10.00;6.00;;;;;;;5.17;76.17;97814.16;1696059;83;21569;-63
2021/12/03 06:13:00;;;;;;;5.60;4.87;;;;;;;5.19;76.45;97806.89;1710540;83;20990;-64
2021/12/03 06:15:26;;;;;;;6.78;5.08;;;;;;;5.22;76.67;97818.90;1697027;83;21038;-71
2021/12/03 06:17:53;;;;;;;5.65;4.40;;;;;;;5.17;76.66;97829.16;1678824;83;21638;-64
2021/12/03 06:20:20;;;;;;;6.45;4.40;;;;;;;5.13;76.75;97831.34;1691893;83;21084;-64
2021/12/03 06:22:47;;;;;;;4.72;4.22;;;;;;;5.13;76.78;97837.93;1690516;83;21629;-65
2021/12/03 06:25:14;;;;;;;7.72;5.40;;;;;;;5.19;76.68;97834.58;1692187;83;20990;-64
2021/12/03 06:27:41;;;;;;;6.03;4.92;;;;;;;5.29;76.27;97834.36;1686139;83;21020;-64
2021/12/03 06:30:11;;;;;;;7.85;5.78;;;;;;;5.24;76.06;97830.11;1690457;83;20983;-65
2021/12/03 06:32:38;;;;;;;5.35;4.85;;;;;;;5.26;76.10;97834.70;1699792;83;21014;-64
2021/12/03 06:35:07;;;;;;;5.78;4.62;;;;;;;5.30;75.96;97837.30;1697314;83;21101;-64
2021/12/03 06:37:35;;;;;;;7.28;5.08;;;;;;;5.30;75.74;97839.44;1689823;83;21053;-64
2021/12/03 06:40:06;;;;;;;6.17;4.05;;;;;;;5.31;75.72;97838.45;1685258;83;21074;-66
2021/12/03 06:42:32;;;;;;;4.35;3.67;;;;;;;5.31;75.65;97837.63;1609101;86;21605;-66
2021/12/03 06:44:59;;;;;;;6.28;4.25;;;;;;;5.36;75.17;97847.15;1686315;85;21011;-65
2021/12/03 06:47:25;;;;;;;5.25;4.10;;;;;;;5.41;74.75;97840.84;1686392;83;21827;-64
2021/12/03 06:49:51;;;;;;;5.58;4.22;;;;;;;5.48;74.39;97847.04;1685553;84;20959;-64
2021/12/03 06:52:18;;;;;;;6.47;4.28;;;;;;;5.45;74.56;97854.81;1686312;84;20992;-65
2021/12/03 06:54:51;;;;;;;4.15;3.75;;;;;;;5.48;76.25;97858.41;1686467;85;20979;-66
2021/12/03 06:57:13;;;;;;;5.53;4.53;;;;;;;5.41;79.28;97862.77;1686988;83;21544;-64
2021/12/03 06:59:40;;;;;;;6.10;4.60;;;;;;;5.48;77.43;97864.19;1677696;85;21164;-64
2021/12/03 07:02:07;;;;;;;6.20;5.45;;;;;;;5.49;76.10;97859.24;1687088;85;21059;-65
2021/12/03 07:04:33;;;;;;;6.90;5.60;;;;;;;5.50;75.30;97867.48;1686385;85;21031;-65
2021/12/03 07:07:00;;;;;;;6.62;5.55;;;;;;;5.44;74.93;97866.87;1686785;85;21011;-64
2021/12/03 07:09:26;;;;;;;7.12;5.47;;;;;;;5.37;74.91;97869.38;1687451;84;20946;-66
2021/12/03 07:11:53;;;;;;;6.83;6.03;;;;;;;5.45;74.60;97879.04;1685079;83;21071;-66
2021/12/03 07:14:19;;;;;;;6.92;5.25;;;;;;;5.51;74.27;97881.80;1685651;83;21409;-66
2021/12/03 07:16:45;;;;;;;10.75;6.30;;;;;;;5.57;73.90;97881.11;1679116;83;21619;-65
2021/12/03 07:19:12;;;;;;;8.03;5.85;;;;;;;5.60;73.38;97874.13;1678402;83;20963;-65
2021/12/03 07:21:38;;;;;;;9.23;6.00;;;;;;;5.56;73.25;97882.09;1678714;83;21434;-65
2021/12/03 07:24:05;;;;;;;7.40;5.78;;;;;;;5.60;73.08;97889.96;1679544;83;21163;-66
2021/12/03 07:26:32;;;;;;;7.05;5.90;;;;;;;5.67;72.79;97881.34;1681107;83;20999;-65
2021/12/03 07:28:58;;;;;;;6.62;5.47;;;;;;;5.66;72.38;97885.80;1678648;83;20990;-65
2021/12/03 07:31:25;;;;;;;7.25;6.35;;;;;;;5.55;72.47;97887.56;1676033;83;20995;-64
2021/12/03 07:33:53;;;;;;;8.03;5.80;;;;;;;5.56;72.61;97886.55;1681116;83;21015;-62
2021/12/03 07:36:20;;;;;;;11.57;6.45;;;;;;;5.53;72.89;97893.48;1680390;83;21183;-65
2021/12/03 07:38:47;;;;;;;7.58;5.70;;;;;;;5.60;72.77;97893.12;1682399;83;20966;-65
2021/12/03 07:41:13;;;;;;;9.23;6.62;;;;;;;5.64;72.70;97886.48;1677092;83;21074;-65
2021/12/03 07:43:39;;;;;;;8.55;7.53;;;;;;;5.67;72.58;97886.12;1681394;83;21490;-65
2021/12/03 07:46:06;;;;;;;13.55;9.18;;;;;;;5.66;72.27;97884.48;1681544;83;21124;-65
2021/12/03 07:48:32;;;;;;;16.45;10.20;;;;;;;5.62;72.24;97891.13;1676898;83;21783;-64
2021/12/03 07:50:59;;;;;;;15.20;11.18;;;;;;;5.64;72.56;97883.84;1678405;83;20942;-64
2021/12/03 07:53:25;;;;;;;22.05;15.45;;;;;;;5.66;74.72;97896.87;1685219;84;21053;-64
2021/12/03 07:55:52;;;;;;;22.07;15.88;;;;;;;5.64;72.93;97914.18;1682866;83;20923;-63
2021/12/03 07:58:19;;;;;;;19.95;14.75;;;;;;;5.56;72.39;97922.16;1676201;83;21430;-64
2021/12/03 08:00:45;;;;;;;19.67;13.25;;;;;;;5.49;72.80;97925.19;1682499;83;21154;-64
2021/12/03 08:03:12;;;;;;;15.18;12.25;;;;;;;5.45;72.58;97929.15;1678977;83;20868;-65
2021/12/03 08:05:39;;;;;;;14.85;12.88;;;;;;;5.40;72.97;97937.59;1675749;83;21449;-66
2021/12/03 08:08:06;;;;;;;13.55;11.38;;;;;;;5.47;73.15;97938.56;1684527;83;20947;-68
2021/12/03 08:10:35;;;;;;;16.97;13.38;;;;;;;5.58;73.11;97947.85;1683492;83;21042;-64
2021/12/03 08:13:02;;;;;;;14.93;11.85;;;;;;;5.68;72.87;97945.83;1682960;83;21763;-64
2021/12/03 08:15:28;;;;;;;15.10;11.53;;;;;;;5.74;72.81;97943.78;1682719;83;21078;-66
2021/12/03 08:17:54;;;;;;;15.98;10.98;;;;;;;5.78;72.73;97938.49;1683011;83;20979;-65
2021/12/03 08:20:21;;;;;;;11.85;10.25;;;;;;;5.82;73.26;97941.58;1644233;85;20959;-65
2021/12/03 08:22:47;;;;;;;14.58;10.10;;;;;;;5.90;72.67;97947.65;1631815;86;20940;-65
2021/12/03 08:25:13;;;;;;;14.18;10.80;;;;;;;5.96;72.00;97948.77;1676491;83;21065;-65
2021/12/03 08:27:41;;;;;;;18.20;12.15;;;;;;;5.92;71.49;97953.56;1684830;83;21453;-65
2021/12/03 08:30:11;;;;;;;16.73;12.50;;;;;;;5.87;71.44;97949.81;1677603;83;21568;-66
2021/12/03 08:32:38;;;;;;;18.52;12.90;;;;;;;5.76;71.27;97955.50;1678436;83;21019;-65
2021/12/03 08:35:05;;;;;;;19.05;12.73;;;;;;;5.79;71.53;97953.83;1685278;83;21422;-65
2021/12/03 08:37:33;;;;;;;15.95;12.63;;;;;;;5.78;71.41;97958.77;1681030;83;21146;-66
2021/12/03 08:39:59;;;;;;;20.15;13.08;;;;;;;5.66;71.33;97970.75;1681161;83;21078;-65
2021/12/03 08:42:25;;;;;;;19.05;13.15;;;;;;;5.65;71.59;97969.92;1688217;83;21532;-63
2021/12/03 08:44:52;;;;;;;18.32;12.98;;;;;;;5.71;71.66;97972.36;1689304;83;20923;-64
2021/12/03 08:47:19;;;;;;;20.10;12.85;;;;;;;5.82;71.45;97971.92;1692313;83;20999;-64
2021/12/03 08:49:54;;;;;;;17.37;11.68;;;;;;;6.00;71.09;97977.75;1692148;84;21991;-64
2021/12/03 08:55:08;;;;;;;14.23;10.55;;;;;;;6.09;70.66;97988.09;1693168;84;21010;-64
2021/12/03 08:57:36;;;;;;;10.35;8.70;;;;;;;6.21;70.14;97984.01;1654841;85;20924;-65
2021/12/03 09:00:13;;;;;;;11.75;8.98;;;;;;;6.16;69.85;97990.33;1633354;87;21571;-65
2021/12/03 09:02:41;;;;;;;12.23;8.35;;;;;;;6.23;69.99;97989.92;1688509;84;21167;-66
2021/12/03 09:05:10;;;;;;;13.50;9.40;;;;;;;6.37;69.45;97991.45;1693323;84;20872;-65
2021/12/03 09:07:37;;;;;;;13.58;9.15;;;;;;;6.42;69.32;97999.66;1700734;84;21533;-67
2021/12/03 09:10:05;;;;;;;11.78;9.68;;;;;;;6.48;69.21;97993.67;1690695;84;21026;-65
2021/12/03 09:12:33;;;;;;;15.98;10.60;;;;;;;6.52;68.97;97994.94;1697251;83;21030;-62
2021/12/03 09:15:04;;;;;;;17.15;11.73;;;;;;;6.62;68.50;97996.84;1699620;84;21051;-66
2021/12/03 09:22:50;;;;;;;13.55;8.93;;;;;;;6.68;67.67;97988.17;1691360;84;20950;-68
2021/12/03 09:25:19;;;;;;;11.28;8.43;;;;;;;6.56;67.06;97999.70;1694798;84;21126;-69
2021/12/03 09:27:44;;;;;;;11.57;7.87;;;;;;;6.48;67.30;98006.88;1694250;83;21796;-69
2021/12/03 09:30:13;;;;;;;11.60;8.20;;;;;;;6.40;66.81;98002.50;1691394;84;21006;-69
2021/12/03 09:32:45;;;;;;;15.38;8.30;;;;;;;6.34;66.74;98011.63;1684389;84;20928;-69
2021/12/03 09:35:10;;;;;;;9.73;7.60;;;;;;;6.26;67.04;98013.04;1696811;84;20955;-69
2021/12/03 09:37:37;;;;;;;10.75;8.00;;;;;;;6.28;67.22;98017.64;1692860;84;21054;-70
2021/12/03 09:40:08;;;;;;;11.73;8.28;;;;;;;6.32;67.15;98013.63;1662681;85;21991;-70
2021/12/03 09:42:36;;;;;;;10.43;7.78;;;;;;;6.36;66.77;98014.41;1660825;85;21536;-69
2021/12/03 09:45:07;;;;;;;11.95;7.95;;;;;;;6.29;67.04;98012.66;1661892;85;20947;-69
2021/12/03 09:47:33;;;;;;;12.78;8.60;;;;;;;6.39;67.00;98019.33;1666215;85;20971;-68
2021/12/03 09:50:02;;;;;;;12.47;9.13;;;;;;;6.37;66.85;98017.38;1662237;85;21078;-68
2021/12/03 09:52:46;;;;;;;12.13;8.55;;;;;;;6.41;67.14;98017.85;1659849;85;21193;-68
2021/12/03 09:55:02;;;;;;;12.73;8.05;;;;;;;6.47;66.82;98013.98;1653420;85;21439;-70
2021/12/03 09:57:35;;;;;;;8.80;7.85;;;;;;;6.50;66.58;98015.44;1665144;85;21511;-69
2021/12/03 10:13:41;;;;;;;9.73;7.87;;;;;;;6.66;66.30;98020.57;1667157;85;20968;-73
2021/12/03 10:18:59;;;;;;;11.25;8.73;;;;;;;6.47;65.92;98009.19;1660356;85;21804;-75
2021/12/03 10:32:42;;;;;;;8.48;7.17;;;;;;;6.57;65.76;98032.23;1663676;83;21596;-73
2021/12/03 10:43:16;;;;;;;9.85;6.80;;;;;;;6.96;64.49;98041.25;1675678;83;21125;-71
2021/12/03 10:46:02;;;;;;;9.85;8.20;;;;;;;6.92;64.93;98048.71;1681609;83;21049;-72
2021/12/03 10:48:52;;;;;;;10.35;8.65;;;;;;;6.93;64.53;98054.33;1681718;83;21434;-75
2021/12/03 10:51:33;;;;;;;12.50;9.75;;;;;;;6.90;65.07;98053.37;1682715;83;21065;-71
2021/12/03 10:53:58;;;;;;;10.78;7.80;;;;;;;7.01;64.98;98055.57;1674956;83;21591;-75
2021/12/03 10:56:46;;;;;;;8.98;7.97;;;;;;;7.04;64.38;98057.03;1677944;83;21003;-70
2021/12/03 11:13:25;;;;;;;8.10;7.15;;;;;;;6.95;63.40;98056.29;1682141;83;21157;-76
2021/12/03 11:27:17;;;;;;;9.90;8.75;;;;;;;6.54;64.13;98077.02;1679328;83;21153;-71
2021/12/03 11:43:27;;;;;;;11.50;9.10;;;;;;;6.43;64.54;98094.60;1679980;83;21068;-70
2021/12/03 12:41:53;;;;;;;10.38;7.92;;;;;;;5.79;66.10;98157.03;1694449;83;20987;-72
2021/12/03 12:55:52;;;;;;;10.95;9.10;;;;;;;5.72;65.12;98153.41;1698936;83;21113;-76
2021/12/03 13:36:09;;;;;;;11.05;8.33;;;;;;;4.28;66.79;98228.48;1698834;83;20997;-72
2021/12/03 13:39:04;;;;;;;10.23;7.75;;;;;;;4.20;67.24;98233.73;1705616;83;21014;-72
2021/12/03 13:45:25;;;;;;;12.30;9.13;;;;;;;4.12;67.68;98235.05;1644812;84;21186;-69
2021/12/03 13:56:59;;;;;;;9.55;8.03;;;;;;;4.26;67.19;98256.79;1684841;83;21171;-71
2021/12/03 14:02:08;;;;;;;13.78;10.48;;;;;;;4.01;66.58;98265.11;1686286;85;21429;-70
2021/12/03 14:37:19;;;;;;;14.73;8.25;;;;;;;2.81;70.13;98320.29;1676181;85;21133;-68
2021/12/03 14:45:13;;;;;;;17.57;13.83;;;;;;;2.63;71.05;98336.52;1683873;84;20967;-70
2021/12/03 14:47:40;;;;;;;15.08;11.48;;;;;;;2.62;71.34;98341.42;1697394;84;20940;-68
2021/12/03 14:55:08;;;;;;;14.73;11.63;;;;;;;2.45;71.95;98351.73;1678542;84;21195;-67
2021/12/03 15:08:39;;;;;;;15.05;10.93;;;;;;;2.23;72.09;98365.26;1703703;83;21069;-69
2021/12/03 15:27:08;;;;;;;18.57;12.00;;;;;;;2.17;71.36;98379.42;1692659;83;21015;-66
2021/12/03 16:04:44;;;;;;;17.90;13.32;;;;;;;2.72;68.37;98426.22;1693634;84;21006;-75
2021/12/03 16:12:45;;;;;;;14.40;11.70;;;;;;;2.73;67.97;98431.83;1690735;83;21425;-71
2021/12/03 16:15:16;;;;;;;14.75;10.80;;;;;;;2.67;67.79;98428.46;1697590;83;20939;-70
2021/12/03 16:23:05;;;;;;;14.20;10.40;;;;;;;2.63;67.51;98440.24;1689773;83;21975;-67
2021/12/03 16:44:33;;;;;;;15.10;10.80;;;;;;;2.55;67.53;98451.95;1679174;83;20935;-68
2021/12/03 16:46:55;;;;;;;13.85;11.20;;;;;;;2.53;67.50;98449.45;1682034;84;20954;-68
2021/12/03 16:52:01;;;;;;;12.68;11.20;;;;;;;2.49;67.41;98451.56;1685313;83;21041;-69
2021/12/03 16:54:37;;;;;;;13.75;11.08;;;;;;;2.47;67.30;98450.05;1686055;85;20923;-67
2021/12/03 16:56:56;;;;;;;16.05;11.03;;;;;;;2.44;67.24;98454.27;1689117;83;21010;-69
2021/12/03 16:59:24;;;;;;;14.43;11.45;;;;;;;2.38;67.23;98468.80;1685797;85;21081;-68
2021/12/03 17:02:00;;;;;;;12.68;10.98;;;;;;;2.33;67.27;98468.40;1683501;83;21179;-68
2021/12/03 17:55:07;;;;;;;10.15;8.03;;;;;;;1.94;67.21;98524.54;1706203;83;21922;-68
2021/12/03 18:00:01;;;;;;;10.90;8.55;;;;;;;1.88;67.52;98532.95;1699921;83;21512;-72
2021/12/03 18:02:43;;;;;;;13.30;9.55;;;;;;;1.88;67.47;98535.58;1707391;83;21594;-71
2021/12/03 18:05:34;;;;;;;11.53;9.35;;;;;;;1.82;67.50;98529.12;1698059;83;21014;-71
2021/12/03 18:08:03;;;;;;;11.22;8.35;;;;;;;1.79;67.63;98532.48;1693849;83;21556;-69
2021/12/03 18:13:19;;;;;;;14.50;9.50;;;;;;;1.79;67.72;98539.88;1704730;83;20951;-68
2021/12/03 18:45:51;;;;;;;13.40;8.28;;;;;;;1.72;68.30;98572.03;1697633;83;20995;-76
2021/12/03 18:51:14;;;;;;;11.68;8.20;;;;;;;1.72;68.38;98578.59;1690121;83;21037;-77